This is the latest recevied weather packets stored in our database for station/object KJ4W. If no packets are shown the sender has not sent any weather packets the latest 10 day(s).
| Time | Temp. | Humidity | Pressure | Rain* | Wind** | Luminosity | Snow |
|---|---|---|---|---|---|---|---|
| 1788339383 | 23.89° C | 91% | 1016.6 hPa | 0 mm | - | - | - |
| 1788338484 | 23.89° C | 90% | 1016.6 hPa | 0 mm | - | - | - |
| 1788337582 | 24.44° C | 89% | 1016.7 hPa | 0 mm | - | - | - |
| 1788336684 | 24.44° C | 89% | 1016.6 hPa | 0 mm | - | - | - |
| 1788335782 | 24.44° C | 89% | 1016.6 hPa | 0 mm | - | - | - |
| 1788334881 | 24.44° C | 91% | 1016.5 hPa | 0 mm | - | - | - |
| 1788333982 | 24.44° C | 90% | 1016.4 hPa | 0 mm | - | - | - |
| 1788333083 | 25° C | 89% | 1016.5 hPa | 0 mm | - | - | - |
| 1788332182 | 25.56° C | 88% | 1016.5 hPa | 0 mm | - | - | - |
| 1788331283 | 25.56° C | 87% | 1016.4 hPa | 0 mm | - | - | - |
| 1788330383 | 25° C | 89% | 1016.4 hPa | 0 mm | - | - | - |
| 1788329483 | 25° C | 91% | 1016.4 hPa | 0 mm | - | - | - |
| 1788328583 | 24.44° C | 92% | 1016.6 hPa | 0 mm | - | - | - |
| 1788327682 | 24.44° C | 92% | 1016.5 hPa | 0 mm | - | - | - |
| 1788326783 | 24.44° C | 92% | 1016.5 hPa | 0 mm | - | - | - |
| 1788325883 | 25° C | 92% | 1016.5 hPa | 0 mm | - | - | - |
| 1788324082 | 24.44° C | 92% | 1016.3 hPa | 0 mm | - | - | - |
| 1788322282 | 24.44° C | 92% | 1016.5 hPa | 0 mm | - | - | - |
| 1788294380 | -12.22° C | 100% | 2.6 hPa | 0 mm | - | - | - |
| 1788287181 | 35° C | 57% | 1017.8 hPa | 0 mm | - | - | - |
| 1788286281 | 33.89° C | 57% | 1017.9 hPa | 0 mm | - | - | - |
| 1788284481 | 33.89° C | 58% | 1018.3 hPa | 0 mm | - | - | - |
| 1788283581 | 33.89° C | 60% | 1018.3 hPa | 0 mm | - | - | - |
| 1788282681 | 34.44° C | 56% | 1018.4 hPa | 0 mm | - | - | - |
| 1788281780 | 34.44° C | 59% | 1018.7 hPa | 0 mm | - | - | - |
* Rain latest hour (hover to see other rain measurements)
** Current wind speed in m/s (hover to see current wind gust speed)